sensor_id;sensor_type;location;lat;lon;timestamp;P1;durP1;ratioP1;P2;durP2;ratioP2
79135;SDS011;68533;51.090;17.216;2023-07-13T00:02:24;2.05;;;1.42;;
79135;SDS011;68533;51.090;17.216;2023-07-13T00:04:52;2.15;;;1.30;;
79135;SDS011;68533;51.090;17.216;2023-07-13T00:07:18;3.78;;;1.73;;
79135;SDS011;68533;51.090;17.216;2023-07-13T00:09:47;5.88;;;1.80;;
79135;SDS011;68533;51.090;17.216;2023-07-13T00:12:24;2.70;;;1.45;;
79135;SDS011;68533;51.090;17.216;2023-07-13T00:14:56;2.78;;;1.90;;
79135;SDS011;68533;51.090;17.216;2023-07-13T00:17:24;2.95;;;1.90;;
79135;SDS011;68533;51.090;17.216;2023-07-13T00:19:50;3.30;;;1.95;;
79135;SDS011;68533;51.090;17.216;2023-07-13T00:22:17;3.83;;;1.63;;
79135;SDS011;68533;51.090;17.216;2023-07-13T00:24:44;3.13;;;1.27;;
79135;SDS011;68533;51.090;17.216;2023-07-13T00:27:10;3.10;;;1.52;;
79135;SDS011;68533;51.090;17.216;2023-07-13T00:29:37;3.38;;;1.80;;
79135;SDS011;68533;51.090;17.216;2023-07-13T00:32:04;3.00;;;1.98;;
79135;SDS011;68533;51.090;17.216;2023-07-13T00:34:31;2.60;;;1.90;;
79135;SDS011;68533;51.090;17.216;2023-07-13T00:36:58;2.75;;;2.08;;
79135;SDS011;68533;51.090;17.216;2023-07-13T00:39:24;2.30;;;1.73;;
79135;SDS011;68533;51.090;17.216;2023-07-13T00:41:50;4.78;;;2.78;;
79135;SDS011;68533;51.090;17.216;2023-07-13T00:44:18;1.10;;;0.88;;
79135;SDS011;68533;51.090;17.216;2023-07-13T00:46:46;2.92;;;2.00;;
79135;SDS011;68533;51.090;17.216;2023-07-13T00:49:14;1.65;;;1.38;;
79135;SDS011;68533;51.090;17.216;2023-07-13T00:51:43;4.13;;;2.33;;
79135;SDS011;68533;51.090;17.216;2023-07-13T00:54:17;3.17;;;2.10;;
79135;SDS011;68533;51.090;17.216;2023-07-13T00:56:48;2.05;;;1.52;;
79135;SDS011;68533;51.090;17.216;2023-07-13T00:59:18;3.28;;;2.35;;
79135;SDS011;68533;51.090;17.216;2023-07-13T01:01:46;3.10;;;1.80;;
79135;SDS011;68533;51.090;17.216;2023-07-13T01:04:14;2.92;;;2.13;;
79135;SDS011;68533;51.090;17.216;2023-07-13T01:06:40;1.48;;;1.30;;
79135;SDS011;68533;51.090;17.216;2023-07-13T01:09:09;2.50;;;2.03;;
79135;SDS011;68533;51.090;17.216;2023-07-13T01:11:37;6.53;;;1.85;;
79135;SDS011;68533;51.090;17.216;2023-07-13T01:14:03;3.13;;;2.03;;
79135;SDS011;68533;51.090;17.216;2023-07-13T01:16:33;3.00;;;1.98;;
79135;SDS011;68533;51.090;17.216;2023-07-13T01:19:01;2.60;;;1.92;;
79135;SDS011;68533;51.090;17.216;2023-07-13T01:21:34;4.15;;;2.22;;
79135;SDS011;68533;51.090;17.216;2023-07-13T01:24:02;2.70;;;2.17;;
79135;SDS011;68533;51.090;17.216;2023-07-13T01:26:28;2.25;;;1.90;;
79135;SDS011;68533;51.090;17.216;2023-07-13T01:28:54;3.03;;;1.88;;
79135;SDS011;68533;51.090;17.216;2023-07-13T01:31:21;2.08;;;1.55;;
79135;SDS011;68533;51.090;17.216;2023-07-13T01:33:48;3.83;;;1.98;;
79135;SDS011;68533;51.090;17.216;2023-07-13T01:36:14;3.60;;;2.45;;
79135;SDS011;68533;51.090;17.216;2023-07-13T01:38:40;3.53;;;2.15;;
79135;SDS011;68533;51.090;17.216;2023-07-13T01:41:06;3.42;;;2.38;;
79135;SDS011;68533;51.090;17.216;2023-07-13T01:43:32;3.97;;;2.53;;
79135;SDS011;68533;51.090;17.216;2023-07-13T01:45:58;3.70;;;2.63;;
79135;SDS011;68533;51.090;17.216;2023-07-13T01:48:25;5.25;;;2.28;;
79135;SDS011;68533;51.090;17.216;2023-07-13T01:50:50;5.05;;;2.58;;
79135;SDS011;68533;51.090;17.216;2023-07-13T01:53:17;2.95;;;2.03;;
79135;SDS011;68533;51.090;17.216;2023-07-13T01:55:42;4.03;;;2.72;;
79135;SDS011;68533;51.090;17.216;2023-07-13T01:58:08;6.93;;;2.38;;
79135;SDS011;68533;51.090;17.216;2023-07-13T02:00:34;4.47;;;2.45;;
79135;SDS011;68533;51.090;17.216;2023-07-13T02:03:01;3.28;;;2.08;;
79135;SDS011;68533;51.090;17.216;2023-07-13T02:05:27;3.10;;;1.95;;
79135;SDS011;68533;51.090;17.216;2023-07-13T02:07:54;4.20;;;2.28;;
79135;SDS011;68533;51.090;17.216;2023-07-13T02:10:19;3.38;;;2.20;;
79135;SDS011;68533;51.090;17.216;2023-07-13T02:12:48;3.08;;;2.17;;
79135;SDS011;68533;51.090;17.216;2023-07-13T02:15:14;3.63;;;2.25;;
79135;SDS011;68533;51.090;17.216;2023-07-13T02:17:41;2.38;;;2.00;;
79135;SDS011;68533;51.090;17.216;2023-07-13T02:20:06;5.95;;;2.95;;
79135;SDS011;68533;51.090;17.216;2023-07-13T02:22:34;2.85;;;1.60;;
79135;SDS011;68533;51.090;17.216;2023-07-13T02:25:02;9.23;;;2.05;;
79135;SDS011;68533;51.090;17.216;2023-07-13T02:27:28;4.18;;;2.17;;
79135;SDS011;68533;51.090;17.216;2023-07-13T02:29:54;5.05;;;2.33;;
79135;SDS011;68533;51.090;17.216;2023-07-13T02:32:21;1.63;;;1.30;;
79135;SDS011;68533;51.090;17.216;2023-07-13T02:34:52;2.15;;;1.42;;
79135;SDS011;68533;51.090;17.216;2023-07-13T02:37:19;3.35;;;2.13;;
79135;SDS011;68533;51.090;17.216;2023-07-13T02:39:44;4.35;;;1.95;;
79135;SDS011;68533;51.090;17.216;2023-07-13T02:42:11;2.25;;;1.77;;
79135;SDS011;68533;51.090;17.216;2023-07-13T02:44:37;2.72;;;1.60;;
79135;SDS011;68533;51.090;17.216;2023-07-13T02:47:03;3.15;;;1.48;;
79135;SDS011;68533;51.090;17.216;2023-07-13T02:49:29;2.45;;;1.30;;
79135;SDS011;68533;51.090;17.216;2023-07-13T02:51:55;1.50;;;1.40;;
79135;SDS011;68533;51.090;17.216;2023-07-13T02:54:21;5.75;;;2.50;;
79135;SDS011;68533;51.090;17.216;2023-07-13T02:56:49;1.90;;;1.52;;
79135;SDS011;68533;51.090;17.216;2023-07-13T02:59:15;1.92;;;1.38;;
79135;SDS011;68533;51.090;17.216;2023-07-13T03:01:41;2.88;;;1.70;;
79135;SDS011;68533;51.090;17.216;2023-07-13T03:04:07;3.25;;;2.45;;
79135;SDS011;68533;51.090;17.216;2023-07-13T03:09:01;2.67;;;2.17;;
79135;SDS011;68533;51.090;17.216;2023-07-13T03:11:29;2.83;;;1.70;;
79135;SDS011;68533;51.090;17.216;2023-07-13T03:13:57;4.35;;;2.95;;
79135;SDS011;68533;51.090;17.216;2023-07-13T03:16:23;2.88;;;2.30;;
79135;SDS011;68533;51.090;17.216;2023-07-13T03:18:49;7.13;;;2.20;;
79135;SDS011;68533;51.090;17.216;2023-07-13T03:21:15;3.80;;;1.92;;
79135;SDS011;68533;51.090;17.216;2023-07-13T03:23:42;3.35;;;1.92;;
79135;SDS011;68533;51.090;17.216;2023-07-13T03:26:12;2.58;;;2.33;;
79135;SDS011;68533;51.090;17.216;2023-07-13T03:28:41;2.90;;;2.58;;
79135;SDS011;68533;51.090;17.216;2023-07-13T03:31:08;5.15;;;2.17;;
79135;SDS011;68533;51.090;17.216;2023-07-13T03:33:36;4.05;;;2.17;;
79135;SDS011;68533;51.090;17.216;2023-07-13T03:36:07;6.82;;;2.60;;
79135;SDS011;68533;51.090;17.216;2023-07-13T03:38:54;4.45;;;2.28;;
79135;SDS011;68533;51.090;17.216;2023-07-13T03:41:24;3.00;;;1.90;;
79135;SDS011;68533;51.090;17.216;2023-07-13T03:43:51;3.13;;;2.42;;
79135;SDS011;68533;51.090;17.216;2023-07-13T03:46:18;3.10;;;2.63;;
79135;SDS011;68533;51.090;17.216;2023-07-13T03:48:45;2.65;;;1.90;;
79135;SDS011;68533;51.090;17.216;2023-07-13T03:53:40;4.38;;;2.33;;
79135;SDS011;68533;51.090;17.216;2023-07-13T03:56:08;2.75;;;2.03;;
79135;SDS011;68533;51.090;17.216;2023-07-13T03:58:35;5.30;;;3.17;;
79135;SDS011;68533;51.090;17.216;2023-07-13T04:01:07;3.10;;;2.10;;
79135;SDS011;68533;51.090;17.216;2023-07-13T04:03:36;4.53;;;2.72;;
79135;SDS011;68533;51.090;17.216;2023-07-13T04:06:03;5.38;;;3.85;;
79135;SDS011;68533;51.090;17.216;2023-07-13T04:08:31;4.18;;;2.15;;
79135;SDS011;68533;51.090;17.216;2023-07-13T04:11:00;3.83;;;2.33;;
79135;SDS011;68533;51.090;17.216;2023-07-13T04:13:26;10.38;;;2.15;;
79135;SDS011;68533;51.090;17.216;2023-07-13T04:15:53;2.63;;;1.75;;
79135;SDS011;68533;51.090;17.216;2023-07-13T04:18:19;3.35;;;2.15;;
79135;SDS011;68533;51.090;17.216;2023-07-13T04:20:46;3.53;;;2.47;;
79135;SDS011;68533;51.090;17.216;2023-07-13T04:23:13;2.40;;;2.00;;
79135;SDS011;68533;51.090;17.216;2023-07-13T04:25:42;3.55;;;2.20;;
79135;SDS011;68533;51.090;17.216;2023-07-13T04:28:15;3.90;;;2.17;;
79135;SDS011;68533;51.090;17.216;2023-07-13T04:30:43;4.72;;;2.60;;
79135;SDS011;68533;51.090;17.216;2023-07-13T04:33:10;5.32;;;2.92;;
79135;SDS011;68533;51.090;17.216;2023-07-13T04:35:36;4.60;;;2.60;;
79135;SDS011;68533;51.090;17.216;2023-07-13T04:38:03;3.28;;;2.10;;
79135;SDS011;68533;51.090;17.216;2023-07-13T04:40:29;3.10;;;2.60;;
79135;SDS011;68533;51.090;17.216;2023-07-13T04:42:55;3.50;;;2.25;;
79135;SDS011;68533;51.090;17.216;2023-07-13T04:45:22;3.15;;;2.15;;
79135;SDS011;68533;51.090;17.216;2023-07-13T04:47:49;3.50;;;2.17;;
79135;SDS011;68533;51.090;17.216;2023-07-13T04:50:16;1.77;;;1.60;;
79135;SDS011;68533;51.090;17.216;2023-07-13T04:52:46;3.22;;;1.55;;
79135;SDS011;68533;51.090;17.216;2023-07-13T04:55:13;2.20;;;1.70;;
79135;SDS011;68533;51.090;17.216;2023-07-13T04:57:39;1.58;;;1.38;;
79135;SDS011;68533;51.090;17.216;2023-07-13T05:00:06;1.75;;;1.33;;
79135;SDS011;68533;51.090;17.216;2023-07-13T05:02:33;3.50;;;1.55;;
79135;SDS011;68533;51.090;17.216;2023-07-13T05:05:01;1.92;;;0.95;;
79135;SDS011;68533;51.090;17.216;2023-07-13T05:07:27;1.38;;;1.05;;
79135;SDS011;68533;51.090;17.216;2023-07-13T05:09:53;2.42;;;1.45;;
79135;SDS011;68533;51.090;17.216;2023-07-13T05:12:19;2.75;;;1.85;;
79135;SDS011;68533;51.090;17.216;2023-07-13T05:14:46;1.35;;;1.15;;
79135;SDS011;68533;51.090;17.216;2023-07-13T05:17:12;1.77;;;1.65;;
79135;SDS011;68533;51.090;17.216;2023-07-13T05:19:38;1.33;;;1.23;;
79135;SDS011;68533;51.090;17.216;2023-07-13T05:22:04;1.48;;;1.00;;
79135;SDS011;68533;51.090;17.216;2023-07-13T05:24:30;0.75;;;0.75;;
79135;SDS011;68533;51.090;17.216;2023-07-13T05:26:56;4.90;;;1.17;;
79135;SDS011;68533;51.090;17.216;2023-07-13T05:29:23;2.13;;;0.98;;
79135;SDS011;68533;51.090;17.216;2023-07-13T05:31:49;1.73;;;1.00;;
79135;SDS011;68533;51.090;17.216;2023-07-13T05:34:17;3.15;;;2.05;;
79135;SDS011;68533;51.090;17.216;2023-07-13T05:36:46;1.13;;;1.02;;
79135;SDS011;68533;51.090;17.216;2023-07-13T05:39:15;0.63;;;0.60;;
79135;SDS011;68533;51.090;17.216;2023-07-13T05:41:43;1.20;;;1.10;;
79135;SDS011;68533;51.090;17.216;2023-07-13T05:44:10;0.88;;;0.73;;
79135;SDS011;68533;51.090;17.216;2023-07-13T05:46:36;1.77;;;1.10;;
79135;SDS011;68533;51.090;17.216;2023-07-13T05:49:02;1.17;;;1.08;;
79135;SDS011;68533;51.090;17.216;2023-07-13T05:51:29;1.38;;;1.23;;
79135;SDS011;68533;51.090;17.216;2023-07-13T05:53:55;0.95;;;0.65;;
79135;SDS011;68533;51.090;17.216;2023-07-13T05:56:21;1.00;;;0.40;;
79135;SDS011;68533;51.090;17.216;2023-07-13T05:58:48;5.75;;;1.35;;
79135;SDS011;68533;51.090;17.216;2023-07-13T06:01:14;4.93;;;1.58;;
79135;SDS011;68533;51.090;17.216;2023-07-13T06:03:42;3.20;;;1.23;;
79135;SDS011;68533;51.090;17.216;2023-07-13T06:06:08;2.13;;;0.90;;
79135;SDS011;68533;51.090;17.216;2023-07-13T06:08:36;2.08;;;1.10;;
79135;SDS011;68533;51.090;17.216;2023-07-13T06:11:15;0.60;;;0.45;;
79135;SDS011;68533;51.090;17.216;2023-07-13T06:13:45;2.13;;;0.70;;
79135;SDS011;68533;51.090;17.216;2023-07-13T06:16:12;1.48;;;1.38;;
79135;SDS011;68533;51.090;17.216;2023-07-13T06:18:40;2.05;;;1.20;;
79135;SDS011;68533;51.090;17.216;2023-07-13T06:21:11;1.30;;;1.20;;
79135;SDS011;68533;51.090;17.216;2023-07-13T06:23:40;0.85;;;0.77;;
79135;SDS011;68533;51.090;17.216;2023-07-13T06:26:10;3.70;;;2.25;;
79135;SDS011;68533;51.090;17.216;2023-07-13T06:28:37;2.30;;;1.27;;
79135;SDS011;68533;51.090;17.216;2023-07-13T06:31:08;1.13;;;1.02;;
79135;SDS011;68533;51.090;17.216;2023-07-13T06:33:37;1.33;;;0.88;;
79135;SDS011;68533;51.090;17.216;2023-07-13T06:36:05;1.38;;;1.10;;
79135;SDS011;68533;51.090;17.216;2023-07-13T06:38:33;2.58;;;1.50;;
79135;SDS011;68533;51.090;17.216;2023-07-13T06:40:59;1.65;;;1.08;;
79135;SDS011;68533;51.090;17.216;2023-07-13T06:43:26;2.75;;;1.10;;
79135;SDS011;68533;51.090;17.216;2023-07-13T06:45:55;1.85;;;1.05;;
79135;SDS011;68533;51.090;17.216;2023-07-13T06:48:22;1.98;;;1.25;;
79135;SDS011;68533;51.090;17.216;2023-07-13T06:50:49;2.50;;;1.55;;
79135;SDS011;68533;51.090;17.216;2023-07-13T06:53:17;2.38;;;1.23;;
79135;SDS011;68533;51.090;17.216;2023-07-13T06:55:45;0.70;;;0.68;;
79135;SDS011;68533;51.090;17.216;2023-07-13T06:58:11;1.10;;;0.98;;
79135;SDS011;68533;51.090;17.216;2023-07-13T07:00:38;1.20;;;0.90;;
79135;SDS011;68533;51.090;17.216;2023-07-13T07:03:05;0.68;;;0.55;;
79135;SDS011;68533;51.090;17.216;2023-07-13T07:05:31;1.13;;;0.90;;
79135;SDS011;68533;51.090;17.216;2023-07-13T07:07:58;1.70;;;0.73;;
79135;SDS011;68533;51.090;17.216;2023-07-13T07:10:24;2.33;;;1.23;;
79135;SDS011;68533;51.090;17.216;2023-07-13T07:12:51;2.63;;;1.10;;
79135;SDS011;68533;51.090;17.216;2023-07-13T07:15:17;1.05;;;0.93;;
79135;SDS011;68533;51.090;17.216;2023-07-13T07:17:43;2.50;;;1.05;;
79135;SDS011;68533;51.090;17.216;2023-07-13T07:20:10;7.75;;;0.77;;
79135;SDS011;68533;51.090;17.216;2023-07-13T07:22:36;1.05;;;0.75;;
79135;SDS011;68533;51.090;17.216;2023-07-13T07:25:03;14.38;;;1.40;;
79135;SDS011;68533;51.090;17.216;2023-07-13T07:27:29;2.00;;;1.40;;
79135;SDS011;68533;51.090;17.216;2023-07-13T07:29:56;2.08;;;1.25;;
79135;SDS011;68533;51.090;17.216;2023-07-13T07:32:23;2.15;;;1.50;;
79135;SDS011;68533;51.090;17.216;2023-07-13T07:34:49;1.45;;;1.10;;
79135;SDS011;68533;51.090;17.216;2023-07-13T07:37:15;1.27;;;1.00;;
79135;SDS011;68533;51.090;17.216;2023-07-13T07:39:44;2.20;;;1.05;;
79135;SDS011;68533;51.090;17.216;2023-07-13T07:42:18;2.08;;;1.60;;
79135;SDS011;68533;51.090;17.216;2023-07-13T07:44:44;3.40;;;2.00;;
79135;SDS011;68533;51.090;17.216;2023-07-13T07:47:12;1.42;;;1.10;;
79135;SDS011;68533;51.090;17.216;2023-07-13T07:49:39;1.40;;;1.17;;
79135;SDS011;68533;51.090;17.216;2023-07-13T07:52:05;1.27;;;1.10;;
79135;SDS011;68533;51.090;17.216;2023-07-13T07:54:33;2.08;;;0.75;;
79135;SDS011;68533;51.090;17.216;2023-07-13T07:57:01;1.27;;;0.98;;
79135;SDS011;68533;51.090;17.216;2023-07-13T07:59:29;1.10;;;0.95;;
79135;SDS011;68533;51.090;17.216;2023-07-13T08:01:59;1.55;;;1.27;;
79135;SDS011;68533;51.090;17.216;2023-07-13T08:04:28;4.65;;;1.08;;
79135;SDS011;68533;51.090;17.216;2023-07-13T08:06:54;3.13;;;1.67;;
79135;SDS011;68533;51.090;17.216;2023-07-13T08:09:22;2.63;;;1.15;;
79135;SDS011;68533;51.090;17.216;2023-07-13T08:11:48;1.08;;;0.38;;
79135;SDS011;68533;51.090;17.216;2023-07-13T08:14:14;1.95;;;1.35;;
79135;SDS011;68533;51.090;17.216;2023-07-13T08:16:41;1.48;;;0.70;;
79135;SDS011;68533;51.090;17.216;2023-07-13T08:19:07;1.90;;;1.00;;
79135;SDS011;68533;51.090;17.216;2023-07-13T08:21:33;1.45;;;1.08;;
79135;SDS011;68533;51.090;17.216;2023-07-13T08:23:59;1.30;;;1.00;;
79135;SDS011;68533;51.090;17.216;2023-07-13T08:26:25;0.88;;;0.75;;
79135;SDS011;68533;51.090;17.216;2023-07-13T08:28:51;0.93;;;0.57;;
79135;SDS011;68533;51.090;17.216;2023-07-13T08:31:20;0.55;;;0.47;;
79135;SDS011;68533;51.090;17.216;2023-07-13T08:33:46;2.15;;;1.00;;
79135;SDS011;68533;51.090;17.216;2023-07-13T08:36:12;0.77;;;0.77;;
79135;SDS011;68533;51.090;17.216;2023-07-13T08:38:38;1.98;;;0.80;;
79135;SDS011;68533;51.090;17.216;2023-07-13T08:41:12;1.02;;;0.73;;
79135;SDS011;68533;51.090;17.216;2023-07-13T08:43:45;0.80;;;0.63;;
79135;SDS011;68533;51.090;17.216;2023-07-13T08:49:09;1.48;;;1.15;;
79135;SDS011;68533;51.090;17.216;2023-07-13T08:56:54;1.05;;;0.90;;
79135;SDS011;68533;51.090;17.216;2023-07-13T08:59:26;1.13;;;0.85;;
79135;SDS011;68533;51.090;17.216;2023-07-13T09:04:33;1.25;;;1.00;;
79135;SDS011;68533;51.090;17.216;2023-07-13T09:07:25;3.50;;;0.82;;
79135;SDS011;68533;51.090;17.216;2023-07-13T09:12:45;1.27;;;0.80;;
79135;SDS011;68533;51.090;17.216;2023-07-13T09:15:34;1.20;;;0.80;;
79135;SDS011;68533;51.090;17.216;2023-07-13T09:18:18;1.77;;;1.08;;
79135;SDS011;68533;51.090;17.216;2023-07-13T09:20:57;1.15;;;0.75;;
79135;SDS011;68533;51.090;17.216;2023-07-13T09:23:28;1.88;;;1.00;;
79135;SDS011;68533;51.090;17.216;2023-07-13T09:25:59;3.20;;;1.10;;
79135;SDS011;68533;51.090;17.216;2023-07-13T09:28:29;1.75;;;1.23;;
79135;SDS011;68533;51.090;17.216;2023-07-13T09:31:04;2.90;;;1.55;;
79135;SDS011;68533;51.090;17.216;2023-07-13T09:33:39;1.95;;;1.20;;
79135;SDS011;68533;51.090;17.216;2023-07-13T09:36:24;2.78;;;1.45;;
79135;SDS011;68533;51.090;17.216;2023-07-13T09:39:04;3.70;;;1.70;;
79135;SDS011;68533;51.090;17.216;2023-07-13T09:44:17;3.28;;;1.60;;
79135;SDS011;68533;51.090;17.216;2023-07-13T09:46:54;2.28;;;1.83;;
79135;SDS011;68533;51.090;17.216;2023-07-13T09:49:28;2.83;;;1.95;;
79135;SDS011;68533;51.090;17.216;2023-07-13T09:51:59;2.45;;;1.38;;
79135;SDS011;68533;51.090;17.216;2023-07-13T09:54:32;3.10;;;1.60;;
79135;SDS011;68533;51.090;17.216;2023-07-13T09:57:01;1.20;;;1.10;;
79135;SDS011;68533;51.090;17.216;2023-07-13T09:59:35;1.98;;;1.55;;
79135;SDS011;68533;51.090;17.216;2023-07-13T10:07:32;1.90;;;1.35;;
79135;SDS011;68533;51.090;17.216;2023-07-13T10:10:03;1.77;;;1.38;;
79135;SDS011;68533;51.090;17.216;2023-07-13T10:12:38;2.63;;;1.38;;
79135;SDS011;68533;51.090;17.216;2023-07-13T10:15:07;4.40;;;1.38;;
79135;SDS011;68533;51.090;17.216;2023-07-13T10:17:40;1.80;;;1.33;;
79135;SDS011;68533;51.090;17.216;2023-07-13T10:20:07;2.42;;;1.58;;
79135;SDS011;68533;51.090;17.216;2023-07-13T10:22:51;1.95;;;1.13;;
79135;SDS011;68533;51.090;17.216;2023-07-13T10:25:20;1.65;;;1.25;;
79135;SDS011;68533;51.090;17.216;2023-07-13T10:27:53;3.95;;;0.98;;
79135;SDS011;68533;51.090;17.216;2023-07-13T10:30:25;1.48;;;1.27;;
79135;SDS011;68533;51.090;17.216;2023-07-13T10:32:58;2.05;;;1.25;;
79135;SDS011;68533;51.090;17.216;2023-07-13T10:35:26;2.05;;;1.30;;
79135;SDS011;68533;51.090;17.216;2023-07-13T10:38:06;1.90;;;0.95;;
79135;SDS011;68533;51.090;17.216;2023-07-13T10:43:04;1.52;;;1.10;;
79135;SDS011;68533;51.090;17.216;2023-07-13T10:45:39;4.55;;;1.60;;
79135;SDS011;68533;51.090;17.216;2023-07-13T10:48:06;1.33;;;1.00;;
79135;SDS011;68533;51.090;17.216;2023-07-13T10:50:38;0.77;;;0.75;;
79135;SDS011;68533;51.090;17.216;2023-07-13T10:53:22;1.83;;;0.85;;
79135;SDS011;68533;51.090;17.216;2023-07-13T10:55:56;4.05;;;1.27;;
79135;SDS011;68533;51.090;17.216;2023-07-13T10:58:33;0.98;;;0.77;;
79135;SDS011;68533;51.090;17.216;2023-07-13T11:03:32;1.20;;;0.93;;
79135;SDS011;68533;51.090;17.216;2023-07-13T11:06:36;1.85;;;0.90;;
79135;SDS011;68533;51.090;17.216;2023-07-13T11:08:55;4.93;;;1.42;;
79135;SDS011;68533;51.090;17.216;2023-07-13T11:11:42;1.23;;;1.08;;
79135;SDS011;68533;51.090;17.216;2023-07-13T11:14:29;1.10;;;0.95;;
79135;SDS011;68533;51.090;17.216;2023-07-13T11:17:04;3.17;;;1.30;;
79135;SDS011;68533;51.090;17.216;2023-07-13T11:19:51;1.63;;;1.50;;
79135;SDS011;68533;51.090;17.216;2023-07-13T11:22:22;1.33;;;0.93;;
79135;SDS011;68533;51.090;17.216;2023-07-13T11:24:58;2.28;;;0.80;;
79135;SDS011;68533;51.090;17.216;2023-07-13T11:33:10;1.65;;;0.82;;
79135;SDS011;68533;51.090;17.216;2023-07-13T11:35:45;1.40;;;1.23;;
79135;SDS011;68533;51.090;17.216;2023-07-13T11:38:36;1.73;;;0.98;;
79135;SDS011;68533;51.090;17.216;2023-07-13T11:41:14;1.55;;;1.05;;
79135;SDS011;68533;51.090;17.216;2023-07-13T11:43:44;0.80;;;0.70;;
79135;SDS011;68533;51.090;17.216;2023-07-13T11:46:12;1.42;;;0.80;;
79135;SDS011;68533;51.090;17.216;2023-07-13T11:51:18;3.38;;;0.85;;
79135;SDS011;68533;51.090;17.216;2023-07-13T11:53:46;1.60;;;0.88;;
79135;SDS011;68533;51.090;17.216;2023-07-13T11:56:14;0.80;;;0.77;;
79135;SDS011;68533;51.090;17.216;2023-07-13T11:58:40;0.95;;;0.65;;
79135;SDS011;68533;51.090;17.216;2023-07-13T12:01:09;1.88;;;0.73;;
79135;SDS011;68533;51.090;17.216;2023-07-13T12:03:45;4.47;;;0.82;;
79135;SDS011;68533;51.090;17.216;2023-07-13T12:06:25;1.80;;;1.08;;
79135;SDS011;68533;51.090;17.216;2023-07-13T12:08:56;1.05;;;0.70;;
79135;SDS011;68533;51.090;17.216;2023-07-13T12:11:23;0.88;;;0.68;;
79135;SDS011;68533;51.090;17.216;2023-07-13T12:13:49;1.83;;;0.80;;
79135;SDS011;68533;51.090;17.216;2023-07-13T12:16:17;1.75;;;0.85;;
79135;SDS011;68533;51.090;17.216;2023-07-13T12:18:48;1.63;;;0.88;;
79135;SDS011;68533;51.090;17.216;2023-07-13T12:21:17;1.05;;;0.75;;
79135;SDS011;68533;51.090;17.216;2023-07-13T12:23:44;1.00;;;0.68;;
79135;SDS011;68533;51.090;17.216;2023-07-13T12:26:14;0.98;;;0.80;;
79135;SDS011;68533;51.090;17.216;2023-07-13T12:34:12;0.77;;;0.63;;
79135;SDS011;68533;51.090;17.216;2023-07-13T12:36:45;0.93;;;0.50;;
79135;SDS011;68533;51.090;17.216;2023-07-13T12:42:19;1.20;;;0.80;;
79135;SDS011;68533;51.090;17.216;2023-07-13T12:47:30;1.00;;;0.60;;
79135;SDS011;68533;51.090;17.216;2023-07-13T12:49:57;1.33;;;0.70;;
79135;SDS011;68533;51.090;17.216;2023-07-13T12:52:31;0.70;;;0.70;;
79135;SDS011;68533;51.090;17.216;2023-07-13T12:55:12;2.45;;;0.88;;
79135;SDS011;68533;51.090;17.216;2023-07-13T12:57:53;2.28;;;1.02;;
79135;SDS011;68533;51.090;17.216;2023-07-13T13:00:22;1.13;;;0.77;;
79135;SDS011;68533;51.090;17.216;2023-07-13T13:02:51;1.98;;;0.73;;
79135;SDS011;68533;51.090;17.216;2023-07-13T13:05:25;1.38;;;0.88;;
79135;SDS011;68533;51.090;17.216;2023-07-13T13:07:52;0.98;;;0.50;;
79135;SDS011;68533;51.090;17.216;2023-07-13T13:10:18;1.30;;;0.70;;
79135;SDS011;68533;51.090;17.216;2023-07-13T13:12:46;1.40;;;0.85;;
79135;SDS011;68533;51.090;17.216;2023-07-13T13:15:13;0.60;;;0.55;;
79135;SDS011;68533;51.090;17.216;2023-07-13T13:17:39;1.27;;;0.82;;
79135;SDS011;68533;51.090;17.216;2023-07-13T13:20:15;0.70;;;0.70;;
79135;SDS011;68533;51.090;17.216;2023-07-13T13:22:45;1.42;;;1.08;;
79135;SDS011;68533;51.090;17.216;2023-07-13T13:25:11;1.15;;;0.80;;
79135;SDS011;68533;51.090;17.216;2023-07-13T13:27:39;1.10;;;0.80;;
79135;SDS011;68533;51.090;17.216;2023-07-13T13:30:16;0.60;;;0.55;;
79135;SDS011;68533;51.090;17.216;2023-07-13T13:32:46;0.75;;;0.73;;
79135;SDS011;68533;51.090;17.216;2023-07-13T13:35:18;1.70;;;0.60;;
79135;SDS011;68533;51.090;17.216;2023-07-13T13:37:46;0.73;;;0.60;;
79135;SDS011;68533;51.090;17.216;2023-07-13T13:40:20;0.47;;;0.47;;
79135;SDS011;68533;51.090;17.216;2023-07-13T13:42:52;0.40;;;0.40;;
79135;SDS011;68533;51.090;17.216;2023-07-13T13:45:20;1.80;;;0.80;;
79135;SDS011;68533;51.090;17.216;2023-07-13T13:47:47;2.45;;;1.00;;
79135;SDS011;68533;51.090;17.216;2023-07-13T13:50:20;0.98;;;0.63;;
79135;SDS011;68533;51.090;17.216;2023-07-13T13:52:50;0.98;;;0.50;;
79135;SDS011;68533;51.090;17.216;2023-07-13T13:55:18;0.80;;;0.60;;
79135;SDS011;68533;51.090;17.216;2023-07-13T13:57:47;1.00;;;0.73;;
79135;SDS011;68533;51.090;17.216;2023-07-13T14:00:14;1.27;;;0.73;;
79135;SDS011;68533;51.090;17.216;2023-07-13T14:02:44;0.52;;;0.50;;
79135;SDS011;68533;51.090;17.216;2023-07-13T14:05:25;1.33;;;0.85;;
79135;SDS011;68533;51.090;17.216;2023-07-13T14:07:52;0.75;;;0.60;;
79135;SDS011;68533;51.090;17.216;2023-07-13T14:10:19;0.50;;;0.50;;
79135;SDS011;68533;51.090;17.216;2023-07-13T14:12:47;0.68;;;0.52;;
79135;SDS011;68533;51.090;17.216;2023-07-13T14:15:26;0.60;;;0.50;;
79135;SDS011;68533;51.090;17.216;2023-07-13T14:17:54;2.00;;;1.00;;
79135;SDS011;68533;51.090;17.216;2023-07-13T14:20:22;2.15;;;0.57;;
79135;SDS011;68533;51.090;17.216;2023-07-13T14:22:49;1.65;;;0.85;;
79135;SDS011;68533;51.090;17.216;2023-07-13T14:25:18;1.35;;;0.60;;
79135;SDS011;68533;51.090;17.216;2023-07-13T14:27:45;0.70;;;0.70;;
79135;SDS011;68533;51.090;17.216;2023-07-13T14:30:16;1.13;;;0.63;;
79135;SDS011;68533;51.090;17.216;2023-07-13T14:32:44;1.48;;;0.88;;
79135;SDS011;68533;51.090;17.216;2023-07-13T14:35:14;2.72;;;0.95;;
79135;SDS011;68533;51.090;17.216;2023-07-13T14:37:41;1.15;;;0.52;;
79135;SDS011;68533;51.090;17.216;2023-07-13T14:40:17;1.80;;;0.60;;
79135;SDS011;68533;51.090;17.216;2023-07-13T14:42:49;1.23;;;0.68;;
79135;SDS011;68533;51.090;17.216;2023-07-13T14:45:15;0.90;;;0.70;;
79135;SDS011;68533;51.090;17.216;2023-07-13T14:47:44;0.52;;;0.50;;
79135;SDS011;68533;51.090;17.216;2023-07-13T14:50:18;1.60;;;0.95;;
79135;SDS011;68533;51.090;17.216;2023-07-13T14:52:52;0.82;;;0.65;;
79135;SDS011;68533;51.090;17.216;2023-07-13T14:55:19;0.90;;;0.55;;
79135;SDS011;68533;51.090;17.216;2023-07-13T14:57:46;2.53;;;0.93;;
79135;SDS011;68533;51.090;17.216;2023-07-13T15:00:14;1.17;;;0.70;;
79135;SDS011;68533;51.090;17.216;2023-07-13T15:02:42;1.08;;;0.63;;
79135;SDS011;68533;51.090;17.216;2023-07-13T15:05:17;1.95;;;0.55;;
79135;SDS011;68533;51.090;17.216;2023-07-13T15:07:50;0.95;;;0.63;;
79135;SDS011;68533;51.090;17.216;2023-07-13T15:12:43;0.50;;;0.40;;
79135;SDS011;68533;51.090;17.216;2023-07-13T15:15:09;1.83;;;0.70;;
79135;SDS011;68533;51.090;17.216;2023-07-13T15:17:37;0.45;;;0.38;;
79135;SDS011;68533;51.090;17.216;2023-07-13T15:25:26;1.20;;;0.70;;
79135;SDS011;68533;51.090;17.216;2023-07-13T15:27:53;0.70;;;0.52;;
79135;SDS011;68533;51.090;17.216;2023-07-13T15:35:14;0.95;;;0.75;;
79135;SDS011;68533;51.090;17.216;2023-07-13T15:37:46;1.95;;;0.82;;
79135;SDS011;68533;51.090;17.216;2023-07-13T15:40:13;0.75;;;0.50;;
79135;SDS011;68533;51.090;17.216;2023-07-13T15:42:40;4.78;;;0.90;;
79135;SDS011;68533;51.090;17.216;2023-07-13T15:45:14;1.85;;;0.70;;
79135;SDS011;68533;51.090;17.216;2023-07-13T15:47:45;0.57;;;0.57;;
79135;SDS011;68533;51.090;17.216;2023-07-13T15:50:13;1.52;;;0.75;;